createdAt,value
2022-07-25T00:01:11.426Z,1.83
2022-07-25T00:03:38.040Z,2.07
2022-07-25T00:06:05.868Z,1.90
2022-07-25T00:08:32.613Z,3.33
2022-07-25T00:10:59.338Z,1.80
2022-07-25T00:13:25.910Z,1.70
2022-07-25T00:15:52.504Z,2.40
2022-07-25T00:18:19.104Z,1.70
2022-07-25T00:20:46.823Z,1.80
2022-07-25T00:23:13.588Z,2.07
2022-07-25T00:25:40.114Z,1.70
2022-07-25T00:28:06.710Z,1.90
2022-07-25T00:30:34.026Z,2.23
2022-07-25T00:33:00.852Z,1.97
2022-07-25T00:35:27.406Z,1.70
2022-07-25T00:37:54.166Z,1.87
2022-07-25T00:40:21.507Z,1.87
2022-07-25T00:42:48.088Z,2.50
2022-07-25T00:45:14.701Z,1.80
2022-07-25T00:47:42.359Z,1.70
2022-07-25T00:50:10.015Z,2.00
2022-07-25T00:52:36.620Z,2.37
2022-07-25T00:55:03.362Z,1.90
2022-07-25T00:57:31.032Z,1.90
2022-07-25T00:59:58.714Z,1.90
2022-07-25T01:02:25.338Z,2.03
2022-07-25T01:04:51.891Z,1.90
2022-07-25T01:07:18.447Z,1.80
2022-07-25T01:09:45.034Z,1.80
2022-07-25T01:12:11.495Z,1.93
2022-07-25T01:14:38.451Z,2.33
2022-07-25T01:17:05.573Z,1.60
2022-07-25T01:19:32.089Z,2.00
2022-07-25T01:21:58.690Z,1.73
2022-07-25T01:24:25.191Z,1.73
2022-07-25T01:26:51.769Z,2.07
2022-07-25T01:29:18.283Z,1.60
2022-07-25T01:31:44.825Z,1.73
2022-07-25T01:34:11.321Z,1.83
2022-07-25T01:36:37.873Z,1.60
2022-07-25T01:39:04.413Z,2.80
2022-07-25T01:41:30.942Z,1.97
2022-07-25T01:43:57.565Z,2.13
2022-07-25T01:46:24.058Z,1.90
2022-07-25T01:48:50.651Z,2.13
2022-07-25T01:51:20.474Z,1.80
2022-07-25T01:53:47.198Z,1.60
2022-07-25T01:56:13.839Z,1.93
2022-07-25T01:58:40.893Z,1.70
2022-07-25T02:01:07.515Z,2.03
2022-07-25T02:03:34.092Z,1.60
2022-07-25T02:06:02.092Z,1.77
2022-07-25T02:08:28.910Z,2.47
2022-07-25T02:10:57.179Z,1.77
2022-07-25T02:13:23.921Z,1.70
2022-07-25T02:15:50.752Z,1.90
2022-07-25T02:18:17.436Z,1.90
2022-07-25T02:20:43.973Z,2.17
2022-07-25T02:23:10.848Z,2.20
2022-07-25T02:25:37.760Z,2.07
2022-07-25T02:28:04.433Z,2.10
2022-07-25T02:30:31.125Z,2.07
2022-07-25T02:32:57.797Z,2.00
2022-07-25T02:35:24.313Z,2.00
2022-07-25T02:37:50.795Z,2.00
2022-07-25T02:40:17.311Z,1.80
2022-07-25T02:42:43.859Z,1.87
2022-07-25T02:45:10.499Z,2.30
2022-07-25T02:47:37.085Z,2.10
2022-07-25T02:50:04.917Z,1.80
2022-07-25T02:52:31.405Z,2.00
2022-07-25T02:54:58.060Z,2.37
2022-07-25T02:57:24.540Z,2.03
2022-07-25T02:59:51.112Z,2.20
2022-07-25T03:02:17.596Z,2.30
2022-07-25T03:04:44.135Z,1.97
2022-07-25T03:07:10.746Z,2.53
2022-07-25T03:09:37.661Z,2.07
2022-07-25T03:12:04.448Z,2.03
2022-07-25T03:14:30.934Z,2.30
2022-07-25T03:16:57.525Z,2.10
2022-07-25T03:19:24.127Z,2.60
2022-07-25T03:21:50.712Z,2.07
2022-07-25T03:24:18.961Z,2.13
2022-07-25T03:26:45.905Z,2.10
2022-07-25T03:29:12.474Z,2.47
2022-07-25T03:31:39.027Z,2.13
2022-07-25T03:34:06.082Z,2.33
2022-07-25T03:36:32.845Z,2.73
2022-07-25T03:38:59.507Z,2.17
2022-07-25T03:41:27.906Z,3.10
2022-07-25T03:43:55.083Z,2.20
2022-07-25T03:46:21.708Z,3.80
2022-07-25T03:48:48.252Z,2.40
2022-07-25T03:51:14.858Z,2.23
2022-07-25T03:54:00.004Z,2.90
2022-07-25T03:56:28.516Z,2.03
2022-07-25T03:58:55.066Z,2.27
2022-07-25T04:01:21.733Z,1.90
2022-07-25T04:03:48.768Z,2.50
2022-07-25T04:06:15.249Z,3.40
2022-07-25T04:08:41.751Z,2.60
2022-07-25T04:11:08.258Z,2.60
2022-07-25T04:13:35.137Z,2.53
2022-07-25T04:16:01.602Z,2.50
2022-07-25T04:18:30.801Z,2.33
2022-07-25T04:21:00.683Z,2.47
2022-07-25T04:23:28.645Z,2.53
2022-07-25T04:25:55.691Z,2.90
2022-07-25T04:28:22.157Z,3.37
2022-07-25T04:30:48.675Z,2.40
2022-07-25T04:33:15.673Z,3.90
2022-07-25T04:35:42.225Z,2.53
2022-07-25T04:38:12.038Z,2.37
2022-07-25T04:40:39.406Z,3.57
2022-07-25T04:43:06.033Z,2.43
2022-07-25T04:45:32.863Z,2.67
2022-07-25T04:47:59.419Z,2.40
2022-07-25T04:50:25.890Z,3.60
2022-07-25T04:52:52.503Z,2.60
2022-07-25T04:55:19.007Z,2.43
2022-07-25T04:57:47.053Z,3.40
2022-07-25T05:00:13.826Z,2.70
2022-07-25T05:02:42.752Z,2.13
2022-07-25T05:05:21.089Z,2.47
2022-07-25T05:07:48.657Z,2.33
2022-07-25T05:10:15.179Z,2.30
2022-07-25T05:12:41.699Z,2.07
2022-07-25T05:15:08.523Z,2.10
2022-07-25T05:17:35.004Z,2.57
2022-07-25T05:20:01.510Z,5.07
2022-07-25T05:22:29.151Z,3.30
2022-07-25T05:24:56.299Z,2.70
2022-07-25T05:27:23.158Z,2.33
2022-07-25T05:29:49.844Z,2.70
2022-07-25T05:32:16.324Z,4.13
2022-07-25T05:34:42.815Z,2.43
2022-07-25T05:37:09.342Z,2.13
2022-07-25T05:39:37.474Z,3.10
2022-07-25T05:42:03.966Z,2.00
2022-07-25T05:44:30.498Z,3.03
2022-07-25T05:46:57.088Z,2.57
2022-07-25T05:49:23.624Z,2.63
2022-07-25T05:51:50.104Z,4.63
2022-07-25T05:54:16.668Z,2.20
2022-07-25T05:56:43.243Z,3.33
2022-07-25T05:59:09.893Z,6.43
2022-07-25T06:01:36.720Z,3.47
2022-07-25T06:04:03.695Z,2.50
2022-07-25T06:06:32.772Z,3.03
2022-07-25T06:08:59.358Z,6.80
2022-07-25T06:11:31.001Z,2.60
2022-07-25T06:13:57.632Z,2.30
2022-07-25T06:16:24.628Z,2.80
2022-07-25T06:18:51.365Z,4.13
2022-07-25T06:21:17.908Z,2.23
2022-07-25T06:23:44.645Z,2.63
2022-07-25T06:26:11.438Z,5.03
2022-07-25T06:28:38.577Z,3.17
2022-07-25T06:31:05.309Z,2.90
2022-07-25T06:33:31.898Z,2.53
2022-07-25T06:35:58.458Z,4.13
2022-07-25T06:38:25.017Z,4.00
2022-07-25T06:40:51.530Z,4.13
2022-07-25T06:43:18.045Z,3.00
2022-07-25T06:45:47.484Z,4.53
2022-07-25T06:48:17.420Z,6.67
2022-07-25T06:50:44.174Z,4.20
2022-07-25T06:53:10.765Z,5.60
2022-07-25T06:55:37.243Z,4.03
2022-07-25T06:58:03.881Z,3.00
2022-07-25T07:00:30.412Z,6.03
2022-07-25T07:03:01.586Z,5.03
2022-07-25T07:05:29.637Z,4.33
2022-07-25T07:07:56.435Z,6.57
2022-07-25T07:10:23.185Z,5.13
2022-07-25T07:12:49.834Z,5.43
2022-07-25T07:15:17.231Z,4.23
2022-07-25T07:17:43.838Z,4.67
2022-07-25T07:20:10.598Z,3.80
2022-07-25T07:22:47.242Z,3.50
2022-07-25T07:25:14.719Z,3.83
2022-07-25T07:27:41.250Z,3.70
2022-07-25T07:30:08.133Z,3.40
2022-07-25T07:32:35.901Z,3.00
2022-07-25T07:35:02.620Z,3.47
2022-07-25T07:37:35.054Z,3.40
2022-07-25T07:40:03.618Z,3.40
2022-07-25T07:42:40.084Z,3.63
2022-07-25T07:45:10.686Z,3.90
2022-07-25T07:47:37.179Z,3.60
2022-07-25T07:50:03.908Z,4.07
2022-07-25T07:52:30.402Z,3.50
2022-07-25T07:55:15.427Z,4.00
2022-07-25T07:57:41.880Z,4.10
2022-07-25T08:00:10.583Z,4.20
2022-07-25T08:02:44.195Z,3.97
2022-07-25T08:05:10.832Z,4.27
2022-07-25T08:07:37.268Z,3.80
2022-07-25T08:10:04.472Z,4.30
2022-07-25T08:12:31.006Z,4.50
2022-07-25T08:14:57.539Z,4.10
2022-07-25T08:17:28.443Z,4.63
2022-07-25T08:19:55.271Z,4.10
2022-07-25T08:22:21.759Z,4.70
2022-07-25T08:24:48.285Z,5.47
2022-07-25T08:27:14.808Z,7.43
2022-07-25T08:29:42.061Z,4.30
2022-07-25T08:32:08.507Z,4.50
2022-07-25T08:34:35.141Z,4.03
2022-07-25T08:37:02.716Z,7.73
2022-07-25T08:39:29.229Z,4.77
2022-07-25T08:41:55.958Z,4.83
2022-07-25T08:44:22.543Z,4.97
2022-07-25T08:46:49.559Z,4.90
2022-07-25T08:49:16.189Z,4.95
2022-07-25T08:51:42.935Z,5.65
2022-07-25T08:54:10.799Z,4.40
2022-07-25T08:56:37.393Z,4.90
2022-07-25T08:59:03.906Z,5.25
2022-07-25T09:01:34.732Z,5.90
2022-07-25T09:04:02.985Z,5.07
2022-07-25T09:06:29.677Z,5.55
2022-07-25T09:08:57.299Z,5.22
2022-07-25T09:11:41.786Z,6.00
2022-07-25T09:14:10.816Z,5.07
2022-07-25T09:16:41.215Z,4.85
2022-07-25T09:19:12.681Z,5.50
2022-07-25T09:21:40.025Z,5.82
2022-07-25T09:24:09.889Z,5.53
2022-07-25T09:26:49.999Z,5.35
2022-07-25T09:29:20.808Z,5.63
2022-07-25T09:31:48.106Z,5.22
2022-07-25T09:34:29.739Z,7.07
2022-07-25T09:36:56.272Z,6.22
2022-07-25T09:39:32.939Z,5.78
2022-07-25T09:41:59.429Z,5.50
2022-07-25T09:44:32.256Z,6.18
2022-07-25T09:47:01.371Z,5.95
2022-07-25T09:49:38.924Z,6.28
2022-07-25T09:52:06.165Z,6.63
2022-07-25T09:54:33.277Z,6.30
2022-07-25T09:56:59.818Z,6.40
2022-07-25T09:59:26.630Z,5.70
2022-07-25T10:02:06.152Z,5.75
2022-07-25T10:04:44.344Z,6.45
2022-07-25T10:07:12.372Z,5.90
2022-07-25T10:09:46.492Z,10.60
2022-07-25T10:12:14.050Z,5.88
2022-07-25T10:14:40.674Z,6.85
2022-07-25T10:17:07.838Z,6.57
2022-07-25T10:19:52.843Z,6.63
2022-07-25T10:22:39.769Z,7.18
2022-07-25T10:25:12.312Z,6.68
2022-07-25T10:27:48.744Z,7.78
2022-07-25T10:30:23.545Z,8.38
2022-07-25T10:33:00.135Z,8.02
2022-07-25T10:35:27.420Z,8.55
2022-07-25T10:37:54.887Z,8.45
2022-07-25T10:40:28.906Z,8.45
2022-07-25T10:43:01.694Z,10.32
2022-07-25T10:45:38.058Z,9.20
2022-07-25T10:48:12.375Z,10.13
2022-07-25T10:50:57.667Z,9.57
2022-07-25T10:53:27.638Z,10.32
2022-07-25T10:56:17.268Z,10.27
2022-07-25T10:58:44.816Z,11.65
2022-07-25T11:01:11.728Z,10.77
2022-07-25T11:03:38.414Z,9.05
2022-07-25T11:06:05.005Z,9.10
2022-07-25T11:08:32.358Z,8.80
2022-07-25T11:10:58.955Z,9.52
2022-07-25T11:13:25.450Z,8.65
2022-07-25T11:15:52.048Z,8.63
2022-07-25T11:18:18.673Z,8.43
2022-07-25T11:20:45.185Z,7.80
2022-07-25T11:23:11.695Z,6.90
2022-07-25T11:25:38.206Z,7.18
2022-07-25T11:28:04.776Z,7.00
2022-07-25T11:30:31.379Z,7.95
2022-07-25T11:32:59.044Z,7.00
2022-07-25T11:35:30.080Z,6.40
2022-07-25T11:37:57.248Z,7.50
2022-07-25T11:40:24.135Z,6.15
2022-07-25T11:42:52.277Z,6.47
2022-07-25T11:45:19.917Z,6.40
2022-07-25T11:47:51.054Z,6.22
2022-07-25T11:50:17.639Z,6.47
2022-07-25T11:52:45.699Z,5.95
2022-07-25T11:55:14.049Z,5.47
2022-07-25T11:57:41.893Z,6.10
2022-07-25T12:00:10.078Z,5.88
2022-07-25T12:02:39.577Z,6.68
2022-07-25T12:05:10.379Z,6.20
2022-07-25T12:07:50.139Z,6.60
2022-07-25T12:10:23.862Z,6.35
2022-07-25T12:12:51.662Z,6.13
2022-07-25T12:15:19.972Z,5.68
2022-07-25T12:17:46.581Z,5.72
2022-07-25T12:20:14.592Z,5.85
2022-07-25T12:22:41.366Z,5.40
2022-07-25T12:25:08.129Z,5.63
2022-07-25T12:27:34.635Z,6.10
2022-07-25T12:30:01.101Z,6.40
2022-07-25T12:32:27.619Z,6.10
2022-07-25T12:34:54.112Z,6.38
2022-07-25T12:37:21.771Z,6.18
2022-07-25T12:39:48.454Z,5.95
2022-07-25T12:42:15.011Z,6.25
2022-07-25T12:44:41.620Z,5.57
2022-07-25T12:47:08.190Z,6.07
2022-07-25T12:49:34.708Z,5.95
2022-07-25T12:52:01.210Z,6.93
2022-07-25T12:54:27.879Z,5.55
2022-07-25T12:56:54.344Z,5.50
2022-07-25T12:59:20.850Z,5.97
2022-07-25T13:01:47.556Z,5.50
2022-07-25T13:04:14.175Z,5.53
2022-07-25T13:06:40.720Z,5.35
2022-07-25T13:09:07.904Z,5.90
2022-07-25T13:11:34.657Z,5.80
2022-07-25T13:14:01.165Z,7.80
2022-07-25T13:16:27.858Z,6.15
2022-07-25T13:18:54.426Z,5.85
2022-07-25T13:21:21.523Z,6.47
2022-07-25T13:23:47.984Z,6.00
2022-07-25T13:26:14.464Z,6.25
2022-07-25T13:28:40.995Z,6.15
2022-07-25T13:31:07.968Z,7.10
2022-07-25T13:33:34.699Z,6.72
2022-07-25T13:36:01.207Z,7.18
2022-07-25T13:38:27.711Z,6.07
2022-07-25T13:40:58.663Z,6.50
2022-07-25T13:43:25.533Z,6.32
2022-07-25T13:45:52.115Z,6.65
2022-07-25T13:48:29.516Z,6.47
2022-07-25T13:50:57.742Z,12.05
2022-07-25T13:53:29.491Z,6.82
2022-07-25T13:55:56.712Z,6.28
2022-07-25T13:58:23.217Z,6.18
2022-07-25T14:00:49.836Z,6.85
2022-07-25T14:03:16.355Z,6.20
2022-07-25T14:05:42.853Z,6.82
2022-07-25T14:08:09.598Z,6.82
2022-07-25T14:10:36.349Z,6.43
2022-07-25T14:13:02.992Z,6.93
2022-07-25T14:15:29.691Z,6.80
2022-07-25T14:17:56.214Z,6.90
2022-07-25T14:20:22.824Z,7.20
2022-07-25T14:22:49.321Z,7.50
2022-07-25T14:25:15.807Z,7.50
2022-07-25T14:27:42.404Z,7.10
2022-07-25T14:30:09.176Z,7.70
2022-07-25T14:32:36.059Z,7.53
2022-07-25T14:35:03.345Z,7.15
2022-07-25T14:37:31.440Z,7.82
2022-07-25T14:39:59.067Z,9.85
2022-07-25T14:42:25.729Z,10.25
2022-07-25T14:44:52.206Z,52.78
2022-07-25T14:47:18.843Z,10.32
2022-07-25T14:49:45.339Z,11.13
2022-07-25T14:52:11.920Z,11.52
2022-07-25T14:54:39.909Z,12.00
2022-07-25T14:57:07.220Z,12.15
2022-07-25T14:59:33.748Z,12.45
2022-07-25T15:02:00.508Z,10.15
2022-07-25T15:04:27.133Z,9.77
2022-07-25T15:06:53.669Z,8.20
2022-07-25T15:09:20.639Z,10.30
2022-07-25T15:11:47.358Z,11.93
2022-07-25T15:14:13.825Z,14.32
2022-07-25T15:16:40.543Z,15.73
2022-07-25T15:19:18.029Z,16.63
2022-07-25T15:21:45.136Z,16.38
2022-07-25T15:24:12.843Z,17.80
2022-07-25T15:26:39.483Z,22.33
2022-07-25T15:29:06.886Z,21.75
2022-07-25T15:31:33.706Z,22.45
2022-07-25T15:34:00.279Z,21.10
2022-07-25T15:36:29.544Z,20.10
2022-07-25T15:38:56.369Z,17.90
2022-07-25T15:41:22.903Z,16.77
2022-07-25T15:43:49.420Z,14.75
2022-07-25T15:46:16.377Z,13.43
2022-07-25T15:48:43.548Z,12.98
2022-07-25T15:51:10.158Z,13.50
2022-07-25T15:53:36.663Z,14.60
2022-07-25T15:56:03.514Z,14.07
2022-07-25T15:58:30.108Z,14.07
2022-07-25T16:00:56.735Z,14.88
2022-07-25T16:03:24.034Z,15.90
2022-07-25T16:05:50.677Z,15.35
2022-07-25T16:08:17.423Z,15.40
2022-07-25T16:10:44.001Z,15.48
2022-07-25T16:13:10.443Z,15.75
2022-07-25T16:15:37.009Z,13.88
2022-07-25T16:18:03.605Z,12.27
2022-07-25T16:20:31.765Z,9.35
2022-07-25T16:22:59.306Z,9.35
2022-07-25T16:25:27.576Z,11.73
2022-07-25T16:27:54.148Z,16.23
2022-07-25T16:30:21.597Z,16.85
2022-07-25T16:32:48.198Z,19.58
2022-07-25T16:35:15.070Z,22.20
2022-07-25T16:37:42.283Z,20.25
2022-07-25T16:40:09.225Z,22.65
2022-07-25T16:42:36.077Z,20.60
2022-07-25T16:45:02.779Z,18.40
2022-07-25T16:47:29.245Z,17.90
2022-07-25T16:49:55.830Z,16.88
2022-07-25T16:52:22.922Z,16.00
2022-07-25T16:54:49.684Z,17.52
2022-07-25T16:57:16.216Z,17.60
2022-07-25T16:59:42.805Z,17.58
2022-07-25T17:02:09.326Z,17.42
2022-07-25T17:04:36.364Z,19.75
2022-07-25T17:07:03.093Z,26.70
2022-07-25T17:09:29.585Z,21.40
2022-07-25T17:11:56.170Z,19.45
2022-07-25T17:14:27.777Z,20.17
2022-07-25T17:16:56.498Z,19.15
2022-07-25T17:19:23.025Z,18.40
2022-07-25T17:21:49.649Z,17.95
2022-07-25T17:24:16.228Z,16.80
2022-07-25T17:26:42.891Z,17.73
2022-07-25T17:29:10.551Z,17.40
2022-07-25T17:31:37.433Z,24.17
2022-07-25T17:34:04.006Z,17.13
2022-07-25T17:36:30.509Z,15.95
2022-07-25T17:38:57.117Z,16.45
2022-07-25T17:41:23.639Z,16.73
2022-07-25T17:43:50.213Z,16.25
2022-07-25T17:46:16.853Z,16.95
2022-07-25T17:48:43.642Z,17.85
2022-07-25T17:51:10.326Z,21.02
2022-07-25T17:53:36.913Z,16.30
2022-07-25T17:56:04.433Z,16.13
2022-07-25T17:58:31.929Z,16.65
2022-07-25T18:01:01.377Z,15.82
2022-07-25T18:03:28.739Z,15.05
2022-07-25T18:05:55.655Z,13.93
2022-07-25T18:08:22.514Z,14.02
2022-07-25T18:10:51.707Z,15.02
2022-07-25T18:13:18.849Z,13.88
2022-07-25T18:15:45.823Z,13.57
2022-07-25T18:18:16.979Z,12.57
2022-07-25T18:20:47.058Z,11.65
2022-07-25T18:23:13.618Z,11.05
2022-07-25T18:25:40.324Z,12.35
2022-07-25T18:28:07.059Z,11.50
2022-07-25T18:30:33.783Z,9.90
2022-07-25T18:33:00.336Z,9.80
2022-07-25T18:35:26.914Z,9.27
2022-07-25T18:37:53.534Z,8.63
2022-07-25T18:40:20.844Z,9.50
2022-07-25T18:42:47.456Z,11.80
2022-07-25T18:45:14.264Z,11.48
2022-07-25T18:47:40.964Z,17.05
2022-07-25T18:50:07.856Z,9.90
2022-07-25T18:52:37.558Z,13.10
2022-07-25T18:55:07.962Z,10.52
2022-07-25T18:57:34.684Z,8.73
2022-07-25T19:00:03.323Z,8.95
2022-07-25T19:02:30.315Z,11.45
2022-07-25T19:04:56.881Z,7.30
2022-07-25T19:07:23.555Z,12.15
2022-07-25T19:09:50.131Z,6.80
2022-07-25T19:12:16.728Z,8.07
2022-07-25T19:14:43.324Z,6.70
2022-07-25T19:17:09.851Z,7.90
2022-07-25T19:19:36.482Z,6.97
2022-07-25T19:22:03.010Z,8.90
2022-07-25T19:24:31.370Z,6.93
2022-07-25T19:26:58.957Z,6.40
2022-07-25T19:29:26.680Z,7.87
2022-07-25T19:31:53.312Z,6.93
2022-07-25T19:34:19.888Z,10.33
2022-07-25T19:36:46.416Z,7.30
2022-07-25T19:39:13.177Z,7.20
2022-07-25T19:41:44.716Z,8.37
2022-07-25T19:44:13.168Z,6.83
2022-07-25T19:46:39.795Z,6.63
2022-07-25T19:49:06.521Z,8.00
2022-07-25T19:51:33.418Z,6.43
2022-07-25T19:54:03.246Z,7.20
2022-07-25T19:56:30.524Z,7.67
2022-07-25T19:58:57.609Z,7.33
2022-07-25T20:01:24.318Z,7.33
2022-07-25T20:03:51.023Z,7.57
2022-07-25T20:06:20.523Z,7.30
2022-07-25T20:08:50.318Z,7.40
2022-07-25T20:11:17.543Z,7.53
2022-07-25T20:13:44.113Z,8.03
2022-07-25T20:16:10.616Z,7.73
2022-07-25T20:18:38.526Z,9.83
2022-07-25T20:21:05.135Z,8.97
2022-07-25T20:23:31.733Z,8.13
2022-07-25T20:25:58.598Z,7.50
2022-07-25T20:28:25.074Z,8.20
2022-07-25T20:30:51.603Z,7.60
2022-07-25T20:33:19.156Z,7.60
2022-07-25T20:35:46.476Z,6.90
2022-07-25T20:38:13.065Z,8.67
2022-07-25T20:40:46.364Z,8.87
2022-07-25T20:43:15.271Z,8.33
2022-07-25T20:45:41.903Z,8.90
2022-07-25T20:48:08.455Z,8.23
2022-07-25T20:50:36.278Z,7.37
2022-07-25T20:53:03.401Z,8.37
2022-07-25T20:55:31.313Z,7.93
2022-07-25T20:57:57.997Z,8.17
2022-07-25T21:00:27.356Z,7.63
2022-07-25T21:02:54.148Z,7.90
2022-07-25T21:05:21.114Z,7.90
2022-07-25T21:07:47.809Z,8.20
2022-07-25T21:10:14.381Z,8.13
2022-07-25T21:12:41.354Z,8.23
2022-07-25T21:15:08.669Z,8.57
2022-07-25T21:17:35.311Z,8.03
2022-07-25T21:20:01.939Z,7.83
2022-07-25T21:22:28.456Z,8.10
2022-07-25T21:24:54.930Z,8.53
2022-07-25T21:27:21.738Z,8.40
2022-07-25T21:29:48.363Z,8.60
2022-07-25T21:32:15.904Z,9.43
2022-07-25T21:34:44.226Z,9.00
2022-07-25T21:37:10.771Z,9.73
2022-07-25T21:39:37.850Z,8.27
2022-07-25T21:42:05.018Z,8.50
2022-07-25T21:44:31.920Z,8.97
2022-07-25T21:46:58.474Z,8.40
2022-07-25T21:49:43.638Z,8.87
2022-07-25T21:52:13.440Z,9.50
2022-07-25T21:54:41.430Z,8.50
2022-07-25T21:57:13.831Z,8.87
2022-07-25T21:59:41.889Z,9.27
2022-07-25T22:02:08.491Z,8.90
2022-07-25T22:04:35.183Z,8.43
2022-07-25T22:07:01.881Z,8.57
2022-07-25T22:09:28.492Z,9.20
2022-07-25T22:11:55.901Z,8.77
2022-07-25T22:14:22.421Z,9.73
2022-07-25T22:16:48.978Z,9.43
2022-07-25T22:19:17.996Z,9.27
2022-07-25T22:21:46.501Z,9.70
2022-07-25T22:24:12.999Z,9.43
2022-07-25T22:26:39.474Z,9.20
2022-07-25T22:29:06.368Z,9.90
2022-07-25T22:31:33.218Z,11.00
2022-07-25T22:33:59.955Z,8.60
2022-07-25T22:36:26.422Z,8.63
2022-07-25T22:38:53.109Z,9.10
2022-07-25T22:41:19.606Z,9.00
2022-07-25T22:43:59.133Z,9.33
2022-07-25T22:46:29.470Z,8.93
2022-07-25T22:48:56.289Z,8.57
2022-07-25T22:51:23.357Z,8.40
2022-07-25T22:53:50.005Z,9.17
2022-07-25T22:56:17.107Z,9.03
2022-07-25T22:58:43.765Z,9.27
2022-07-25T23:01:12.671Z,8.90
2022-07-25T23:03:39.218Z,8.43
2022-07-25T23:06:06.388Z,9.37
2022-07-25T23:08:32.945Z,8.33
2022-07-25T23:10:59.544Z,9.30
2022-07-25T23:13:26.016Z,8.13
2022-07-25T23:15:52.506Z,9.40
2022-07-25T23:18:19.342Z,8.60
2022-07-25T23:20:45.962Z,8.40
2022-07-25T23:23:12.578Z,8.93
2022-07-25T23:25:39.106Z,8.87
2022-07-25T23:28:05.633Z,9.00
2022-07-25T23:30:35.425Z,8.83
2022-07-25T23:33:06.707Z,9.03
2022-07-25T23:35:33.292Z,9.17
2022-07-25T23:37:59.774Z,9.23
2022-07-25T23:40:26.670Z,9.17
2022-07-25T23:42:53.225Z,8.90
2022-07-25T23:45:19.870Z,9.20
2022-07-25T23:47:46.573Z,8.87
2022-07-25T23:50:13.217Z,8.97
2022-07-25T23:52:39.876Z,8.97
2022-07-25T23:55:07.107Z,8.90
2022-07-25T23:57:33.636Z,8.47
